sensor_id;sensor_type;location;lat;lon;timestamp;temperature;humidity
66873;HTU21D;53781;51.090;5.884;2022-10-19T00:00:09;11.73;74.89
66873;HTU21D;53781;51.090;5.884;2022-10-19T00:00:24;11.72;74.94
66873;HTU21D;53781;51.090;5.884;2022-10-19T00:00:38;11.72;74.91
66873;HTU21D;53781;51.090;5.884;2022-10-19T00:01:22;11.72;74.90
66873;HTU21D;53781;51.090;5.884;2022-10-19T00:01:37;11.70;74.92
66873;HTU21D;53781;51.090;5.884;2022-10-19T00:01:52;11.69;74.91
66873;HTU21D;53781;51.090;5.884;2022-10-19T00:02:06;11.70;74.94
66873;HTU21D;53781;51.090;5.884;2022-10-19T00:02:21;11.69;74.96
66873;HTU21D;53781;51.090;5.884;2022-10-19T00:02:36;11.71;74.92
66873;HTU21D;53781;51.090;5.884;2022-10-19T00:02:51;11.70;74.93
66873;HTU21D;53781;51.090;5.884;2022-10-19T00:03:05;11.71;74.89
66873;HTU21D;53781;51.090;5.884;2022-10-19T00:03:20;11.70;74.96
66873;HTU21D;53781;51.090;5.884;2022-10-19T00:03:35;11.70;75.00
66873;HTU21D;53781;51.090;5.884;2022-10-19T00:03:54;11.69;74.97
66873;HTU21D;53781;51.090;5.884;2022-10-19T00:04:09;11.70;75.02
66873;HTU21D;53781;51.090;5.884;2022-10-19T00:04:23;11.69;75.03
66873;HTU21D;53781;51.090;5.884;2022-10-19T00:04:38;11.69;75.08
66873;HTU21D;53781;51.090;5.884;2022-10-19T00:04:53;11.68;75.06
66873;HTU21D;53781;51.090;5.884;2022-10-19T00:05:08;11.69;75.04
66873;HTU21D;53781;51.090;5.884;2022-10-19T00:05:22;11.69;75.09
66873;HTU21D;53781;51.090;5.884;2022-10-19T00:05:37;11.69;75.14
66873;HTU21D;53781;51.090;5.884;2022-10-19T00:05:52;11.69;75.12
66873;HTU21D;53781;51.090;5.884;2022-10-19T00:06:21;11.69;75.12
66873;HTU21D;53781;51.090;5.884;2022-10-19T00:06:39;11.69;75.16
66873;HTU21D;53781;51.090;5.884;2022-10-19T00:06:54;11.68;75.19
66873;HTU21D;53781;51.090;5.884;2022-10-19T00:07:08;11.69;75.23
66873;HTU21D;53781;51.090;5.884;2022-10-19T00:07:23;11.67;75.25
66873;HTU21D;53781;51.090;5.884;2022-10-19T00:07:38;11.69;75.30
66873;HTU21D;53781;51.090;5.884;2022-10-19T00:07:52;11.68;75.34
66873;HTU21D;53781;51.090;5.884;2022-10-19T00:08:08;11.69;75.40
66873;HTU21D;53781;51.090;5.884;2022-10-19T00:08:22;11.67;75.39
66873;HTU21D;53781;51.090;5.884;2022-10-19T00:08:37;11.68;75.36
66873;HTU21D;53781;51.090;5.884;2022-10-19T00:09:04;11.69;75.32
66873;HTU21D;53781;51.090;5.884;2022-10-19T00:09:19;11.69;75.29
66873;HTU21D;53781;51.090;5.884;2022-10-19T00:09:34;11.68;75.29
66873;HTU21D;53781;51.090;5.884;2022-10-19T00:09:49;11.67;75.28
66873;HTU21D;53781;51.090;5.884;2022-10-19T00:10:04;11.66;75.32
66873;HTU21D;53781;51.090;5.884;2022-10-19T00:10:18;11.64;75.31
66873;HTU21D;53781;51.090;5.884;2022-10-19T00:10:33;11.67;75.29
66873;HTU21D;53781;51.090;5.884;2022-10-19T00:10:48;11.66;75.32
66873;HTU21D;53781;51.090;5.884;2022-10-19T00:11:03;11.67;75.28
66873;HTU21D;53781;51.090;5.884;2022-10-19T00:11:18;11.66;75.38
66873;HTU21D;53781;51.090;5.884;2022-10-19T00:11:36;11.68;75.38
66873;HTU21D;53781;51.090;5.884;2022-10-19T00:11:51;11.66;75.32
66873;HTU21D;53781;51.090;5.884;2022-10-19T00:12:06;11.66;75.34
66873;HTU21D;53781;51.090;5.884;2022-10-19T00:12:21;11.68;75.39
66873;HTU21D;53781;51.090;5.884;2022-10-19T00:12:35;11.68;75.41
66873;HTU21D;53781;51.090;5.884;2022-10-19T00:12:50;11.67;75.39
66873;HTU21D;53781;51.090;5.884;2022-10-19T00:13:05;11.68;75.45
66873;HTU21D;53781;51.090;5.884;2022-10-19T00:13:19;11.69;75.41
66873;HTU21D;53781;51.090;5.884;2022-10-19T00:13:35;11.68;75.48
66873;HTU21D;53781;51.090;5.884;2022-10-19T00:13:51;11.70;75.44
66873;HTU21D;53781;51.090;5.884;2022-10-19T00:14:10;11.71;75.47
66873;HTU21D;53781;51.090;5.884;2022-10-19T00:14:25;11.69;75.50
66873;HTU21D;53781;51.090;5.884;2022-10-19T00:14:40;11.68;75.50
66873;HTU21D;53781;51.090;5.884;2022-10-19T00:14:54;11.69;75.49
66873;HTU21D;53781;51.090;5.884;2022-10-19T00:15:09;11.69;75.47
66873;HTU21D;53781;51.090;5.884;2022-10-19T00:15:24;11.70;75.44
66873;HTU21D;53781;51.090;5.884;2022-10-19T00:15:40;11.72;75.49
66873;HTU21D;53781;51.090;5.884;2022-10-19T00:15:55;11.69;75.49
66873;HTU21D;53781;51.090;5.884;2022-10-19T00:16:12;11.71;75.51
66873;HTU21D;53781;51.090;5.884;2022-10-19T00:16:31;11.71;75.51
66873;HTU21D;53781;51.090;5.884;2022-10-19T00:16:48;11.70;75.47
66873;HTU21D;53781;51.090;5.884;2022-10-19T00:17:03;11.70;75.48
66873;HTU21D;53781;51.090;5.884;2022-10-19T00:17:18;11.69;75.50
66873;HTU21D;53781;51.090;5.884;2022-10-19T00:17:33;11.70;75.40
66873;HTU21D;53781;51.090;5.884;2022-10-19T00:17:48;11.68;75.35
66873;HTU21D;53781;51.090;5.884;2022-10-19T00:18:02;11.69;75.34
66873;HTU21D;53781;51.090;5.884;2022-10-19T00:18:17;11.68;75.26
66873;HTU21D;53781;51.090;5.884;2022-10-19T00:18:32;11.69;75.21
66873;HTU21D;53781;51.090;5.884;2022-10-19T00:18:46;11.68;75.23
66873;HTU21D;53781;51.090;5.884;2022-10-19T00:19:04;11.66;75.25
66873;HTU21D;53781;51.090;5.884;2022-10-19T00:19:23;11.66;75.33
66873;HTU21D;53781;51.090;5.884;2022-10-19T00:19:38;11.66;75.28
66873;HTU21D;53781;51.090;5.884;2022-10-19T00:19:53;11.66;75.21
66873;HTU21D;53781;51.090;5.884;2022-10-19T00:20:08;11.64;75.18
66873;HTU21D;53781;51.090;5.884;2022-10-19T00:20:23;11.64;75.09
66873;HTU21D;53781;51.090;5.884;2022-10-19T00:20:37;11.63;75.07
66873;HTU21D;53781;51.090;5.884;2022-10-19T00:20:52;11.63;74.98
66873;HTU21D;53781;51.090;5.884;2022-10-19T00:21:17;11.60;74.90
66873;HTU21D;53781;51.090;5.884;2022-10-19T00:21:33;11.62;74.80
66873;HTU21D;53781;51.090;5.884;2022-10-19T00:21:48;11.61;74.78
66873;HTU21D;53781;51.090;5.884;2022-10-19T00:22:03;11.59;74.73
66873;HTU21D;53781;51.090;5.884;2022-10-19T00:22:17;11.58;74.68
66873;HTU21D;53781;51.090;5.884;2022-10-19T00:22:32;11.58;74.66
66873;HTU21D;53781;51.090;5.884;2022-10-19T00:22:49;11.58;74.67
66873;HTU21D;53781;51.090;5.884;2022-10-19T00:23:04;11.60;74.67
66873;HTU21D;53781;51.090;5.884;2022-10-19T00:23:18;11.59;74.60
66873;HTU21D;53781;51.090;5.884;2022-10-19T00:23:34;11.59;74.56
66873;HTU21D;53781;51.090;5.884;2022-10-19T00:23:49;11.58;74.49
66873;HTU21D;53781;51.090;5.884;2022-10-19T00:24:05;11.59;74.49
66873;HTU21D;53781;51.090;5.884;2022-10-19T00:24:20;11.58;74.49
66873;HTU21D;53781;51.090;5.884;2022-10-19T00:24:35;11.58;74.51
66873;HTU21D;53781;51.090;5.884;2022-10-19T00:24:50;11.59;74.52
66873;HTU21D;53781;51.090;5.884;2022-10-19T00:25:05;11.57;74.44
66873;HTU21D;53781;51.090;5.884;2022-10-19T00:25:20;11.57;74.48
66873;HTU21D;53781;51.090;5.884;2022-10-19T00:25:35;11.57;74.51
66873;HTU21D;53781;51.090;5.884;2022-10-19T00:25:55;11.56;74.50
66873;HTU21D;53781;51.090;5.884;2022-10-19T00:26:10;11.58;74.50
66873;HTU21D;53781;51.090;5.884;2022-10-19T00:26:25;11.58;74.49
66873;HTU21D;53781;51.090;5.884;2022-10-19T00:26:40;11.57;74.56
66873;HTU21D;53781;51.090;5.884;2022-10-19T00:26:54;11.56;74.56
66873;HTU21D;53781;51.090;5.884;2022-10-19T00:27:09;11.56;74.57
66873;HTU21D;53781;51.090;5.884;2022-10-19T00:27:24;11.56;74.62
66873;HTU21D;53781;51.090;5.884;2022-10-19T00:27:39;11.58;74.61
66873;HTU21D;53781;51.090;5.884;2022-10-19T00:27:53;11.56;74.75
66873;HTU21D;53781;51.090;5.884;2022-10-19T00:28:08;11.56;74.74
66873;HTU21D;53781;51.090;5.884;2022-10-19T00:28:23;11.56;74.77
66873;HTU21D;53781;51.090;5.884;2022-10-19T00:28:37;11.56;74.74
66873;HTU21D;53781;51.090;5.884;2022-10-19T00:28:54;11.57;74.79
66873;HTU21D;53781;51.090;5.884;2022-10-19T00:29:11;11.56;74.78
66873;HTU21D;53781;51.090;5.884;2022-10-19T00:29:26;11.55;74.76
66873;HTU21D;53781;51.090;5.884;2022-10-19T00:29:41;11.57;74.85
66873;HTU21D;53781;51.090;5.884;2022-10-19T00:29:56;11.53;74.80
66873;HTU21D;53781;51.090;5.884;2022-10-19T00:30:10;11.55;74.83
66873;HTU21D;53781;51.090;5.884;2022-10-19T00:30:25;11.55;74.83
66873;HTU21D;53781;51.090;5.884;2022-10-19T00:30:40;11.56;74.86
66873;HTU21D;53781;51.090;5.884;2022-10-19T00:30:54;11.54;74.86
66873;HTU21D;53781;51.090;5.884;2022-10-19T00:31:12;11.55;74.92
66873;HTU21D;53781;51.090;5.884;2022-10-19T00:31:27;11.55;74.90
66873;HTU21D;53781;51.090;5.884;2022-10-19T00:31:42;11.55;74.89
66873;HTU21D;53781;51.090;5.884;2022-10-19T00:31:57;11.55;74.97
66873;HTU21D;53781;51.090;5.884;2022-10-19T00:32:12;11.54;74.89
66873;HTU21D;53781;51.090;5.884;2022-10-19T00:32:26;11.52;74.90
66873;HTU21D;53781;51.090;5.884;2022-10-19T00:32:41;11.52;74.87
66873;HTU21D;53781;51.090;5.884;2022-10-19T00:32:56;11.52;74.82
66873;HTU21D;53781;51.090;5.884;2022-10-19T00:33:10;11.52;74.85
66873;HTU21D;53781;51.090;5.884;2022-10-19T00:33:25;11.51;74.91
66873;HTU21D;53781;51.090;5.884;2022-10-19T00:33:41;11.49;74.85
66873;HTU21D;53781;51.090;5.884;2022-10-19T00:33:57;11.49;74.82
66873;HTU21D;53781;51.090;5.884;2022-10-19T00:34:11;11.51;74.80
66873;HTU21D;53781;51.090;5.884;2022-10-19T00:34:26;11.49;74.84
66873;HTU21D;53781;51.090;5.884;2022-10-19T00:34:41;11.48;74.77
66873;HTU21D;53781;51.090;5.884;2022-10-19T00:34:56;11.47;74.75
66873;HTU21D;53781;51.090;5.884;2022-10-19T00:35:10;11.49;74.80
66873;HTU21D;53781;51.090;5.884;2022-10-19T00:35:25;11.48;74.74
66873;HTU21D;53781;51.090;5.884;2022-10-19T00:35:40;11.47;74.77
66873;HTU21D;53781;51.090;5.884;2022-10-19T00:35:54;11.47;74.75
66873;HTU21D;53781;51.090;5.884;2022-10-19T00:36:35;11.45;74.71
66873;HTU21D;53781;51.090;5.884;2022-10-19T00:36:49;11.44;74.73
66873;HTU21D;53781;51.090;5.884;2022-10-19T00:37:04;11.46;74.74
66873;HTU21D;53781;51.090;5.884;2022-10-19T00:37:19;11.43;74.72
66873;HTU21D;53781;51.090;5.884;2022-10-19T00:37:33;11.43;74.76
66873;HTU21D;53781;51.090;5.884;2022-10-19T00:37:48;11.45;74.76
66873;HTU21D;53781;51.090;5.884;2022-10-19T00:38:03;11.43;74.86
66873;HTU21D;53781;51.090;5.884;2022-10-19T00:38:19;11.42;74.88
66873;HTU21D;53781;51.090;5.884;2022-10-19T00:38:35;11.44;74.92
66873;HTU21D;53781;51.090;5.884;2022-10-19T00:38:50;11.42;74.89
66873;HTU21D;53781;51.090;5.884;2022-10-19T00:39:09;11.42;74.86
66873;HTU21D;53781;51.090;5.884;2022-10-19T00:39:24;11.42;74.89
66873;HTU21D;53781;51.090;5.884;2022-10-19T00:39:39;11.41;74.84
66873;HTU21D;53781;51.090;5.884;2022-10-19T00:39:54;11.41;74.88
66873;HTU21D;53781;51.090;5.884;2022-10-19T00:40:09;11.42;74.89
66873;HTU21D;53781;51.090;5.884;2022-10-19T00:40:23;11.41;74.89
66873;HTU21D;53781;51.090;5.884;2022-10-19T00:40:39;11.41;74.89
66873;HTU21D;53781;51.090;5.884;2022-10-19T00:40:54;11.41;74.84
66873;HTU21D;53781;51.090;5.884;2022-10-19T00:41:09;11.41;74.85
66873;HTU21D;53781;51.090;5.884;2022-10-19T00:41:27;11.41;74.81
66873;HTU21D;53781;51.090;5.884;2022-10-19T00:41:44;11.41;74.88
66873;HTU21D;53781;51.090;5.884;2022-10-19T00:41:59;11.41;74.91
66873;HTU21D;53781;51.090;5.884;2022-10-19T00:42:14;11.42;74.89
66873;HTU21D;53781;51.090;5.884;2022-10-19T00:42:28;11.42;74.98
66873;HTU21D;53781;51.090;5.884;2022-10-19T00:42:43;11.41;74.98
66873;HTU21D;53781;51.090;5.884;2022-10-19T00:42:58;11.41;74.99
66873;HTU21D;53781;51.090;5.884;2022-10-19T00:43:23;11.40;74.89
66873;HTU21D;53781;51.090;5.884;2022-10-19T00:44:00;11.42;74.99
66873;HTU21D;53781;51.090;5.884;2022-10-19T00:45:06;11.41;74.98
66873;HTU21D;53781;51.090;5.884;2022-10-19T00:45:24;11.41;74.99
66873;HTU21D;53781;51.090;5.884;2022-10-19T00:45:39;11.40;74.97
66873;HTU21D;53781;51.090;5.884;2022-10-19T00:45:54;11.40;75.02
66873;HTU21D;53781;51.090;5.884;2022-10-19T00:46:12;11.40;74.94
66873;HTU21D;53781;51.090;5.884;2022-10-19T00:46:30;11.38;75.01
66873;HTU21D;53781;51.090;5.884;2022-10-19T00:46:46;11.39;75.02
66873;HTU21D;53781;51.090;5.884;2022-10-19T00:47:07;11.37;75.05
66873;HTU21D;53781;51.090;5.884;2022-10-19T00:47:22;11.38;75.02
66873;HTU21D;53781;51.090;5.884;2022-10-19T00:47:38;11.39;75.04
66873;HTU21D;53781;51.090;5.884;2022-10-19T00:47:54;11.37;75.01
66873;HTU21D;53781;51.090;5.884;2022-10-19T00:48:13;11.39;75.07
66873;HTU21D;53781;51.090;5.884;2022-10-19T00:48:30;11.38;75.19
66873;HTU21D;53781;51.090;5.884;2022-10-19T00:48:46;11.39;75.17
66873;HTU21D;53781;51.090;5.884;2022-10-19T00:49:10;11.39;75.21
66873;HTU21D;53781;51.090;5.884;2022-10-19T00:49:31;11.37;75.16
66873;HTU21D;53781;51.090;5.884;2022-10-19T00:49:46;11.38;75.20
66873;HTU21D;53781;51.090;5.884;2022-10-19T00:50:02;11.40;75.23
66873;HTU21D;53781;51.090;5.884;2022-10-19T00:50:17;11.40;75.24
66873;HTU21D;53781;51.090;5.884;2022-10-19T00:50:32;11.41;75.22
66873;HTU21D;53781;51.090;5.884;2022-10-19T00:50:50;11.40;75.21
66873;HTU21D;53781;51.090;5.884;2022-10-19T00:51:06;11.40;75.23
66873;HTU21D;53781;51.090;5.884;2022-10-19T00:51:21;11.42;75.21
66873;HTU21D;53781;51.090;5.884;2022-10-19T00:51:42;11.42;75.17
66873;HTU21D;53781;51.090;5.884;2022-10-19T00:52:05;11.43;75.23
66873;HTU21D;53781;51.090;5.884;2022-10-19T00:52:23;11.43;75.25
66873;HTU21D;53781;51.090;5.884;2022-10-19T00:52:40;11.44;75.21
66873;HTU21D;53781;51.090;5.884;2022-10-19T00:52:56;11.44;75.26
66873;HTU21D;53781;51.090;5.884;2022-10-19T00:53:11;11.44;75.23
66873;HTU21D;53781;51.090;5.884;2022-10-19T00:53:29;11.43;75.21
66873;HTU21D;53781;51.090;5.884;2022-10-19T00:53:45;11.44;75.23
66873;HTU21D;53781;51.090;5.884;2022-10-19T00:54:02;11.44;75.22
66873;HTU21D;53781;51.090;5.884;2022-10-19T00:54:19;11.43;75.28
66873;HTU21D;53781;51.090;5.884;2022-10-19T00:54:37;11.42;75.30
66873;HTU21D;53781;51.090;5.884;2022-10-19T00:54:55;11.43;75.29
66873;HTU21D;53781;51.090;5.884;2022-10-19T00:55:12;11.42;75.30
66873;HTU21D;53781;51.090;5.884;2022-10-19T00:55:27;11.42;75.25
66873;HTU21D;53781;51.090;5.884;2022-10-19T00:55:43;11.41;75.31
66873;HTU21D;53781;51.090;5.884;2022-10-19T00:56:04;11.43;75.35
66873;HTU21D;53781;51.090;5.884;2022-10-19T00:56:21;11.42;75.37
66873;HTU21D;53781;51.090;5.884;2022-10-19T00:56:39;11.43;75.42
66873;HTU21D;53781;51.090;5.884;2022-10-19T00:56:56;11.42;75.46
66873;HTU21D;53781;51.090;5.884;2022-10-19T00:57:12;11.43;75.51
66873;HTU21D;53781;51.090;5.884;2022-10-19T00:57:29;11.44;75.53
66873;HTU21D;53781;51.090;5.884;2022-10-19T00:57:44;11.44;75.55
66873;HTU21D;53781;51.090;5.884;2022-10-19T00:58:02;11.43;75.57
66873;HTU21D;53781;51.090;5.884;2022-10-19T00:58:17;11.45;75.62
66873;HTU21D;53781;51.090;5.884;2022-10-19T00:58:31;11.46;75.69
66873;HTU21D;53781;51.090;5.884;2022-10-19T00:58:47;11.44;75.65
66873;HTU21D;53781;51.090;5.884;2022-10-19T00:59:03;11.46;75.70
66873;HTU21D;53781;51.090;5.884;2022-10-19T00:59:22;11.47;75.63
66873;HTU21D;53781;51.090;5.884;2022-10-19T00:59:42;11.45;75.67
66873;HTU21D;53781;51.090;5.884;2022-10-19T01:00:03;11.47;75.68
66873;HTU21D;53781;51.090;5.884;2022-10-19T01:00:18;11.45;75.70
66873;HTU21D;53781;51.090;5.884;2022-10-19T01:00:33;11.46;75.73
66873;HTU21D;53781;51.090;5.884;2022-10-19T01:00:48;11.45;75.77
66873;HTU21D;53781;51.090;5.884;2022-10-19T01:01:04;11.45;75.76
66873;HTU21D;53781;51.090;5.884;2022-10-19T01:01:21;11.45;75.79
66873;HTU21D;53781;51.090;5.884;2022-10-19T01:01:37;11.45;75.77
66873;HTU21D;53781;51.090;5.884;2022-10-19T01:01:53;11.44;75.79
66873;HTU21D;53781;51.090;5.884;2022-10-19T01:02:08;11.46;75.79
66873;HTU21D;53781;51.090;5.884;2022-10-19T01:02:23;11.47;75.77
66873;HTU21D;53781;51.090;5.884;2022-10-19T01:02:38;11.45;75.73
66873;HTU21D;53781;51.090;5.884;2022-10-19T01:02:52;11.46;75.71
66873;HTU21D;53781;51.090;5.884;2022-10-19T01:03:08;11.44;75.64
66873;HTU21D;53781;51.090;5.884;2022-10-19T01:03:24;11.43;75.61
66873;HTU21D;53781;51.090;5.884;2022-10-19T01:03:39;11.44;75.49
66873;HTU21D;53781;51.090;5.884;2022-10-19T01:03:54;11.45;75.57
66873;HTU21D;53781;51.090;5.884;2022-10-19T01:04:10;11.46;75.44
66873;HTU21D;53781;51.090;5.884;2022-10-19T01:04:26;11.45;75.47
66873;HTU21D;53781;51.090;5.884;2022-10-19T01:04:46;11.44;75.38
66873;HTU21D;53781;51.090;5.884;2022-10-19T01:05:03;11.43;75.34
66873;HTU21D;53781;51.090;5.884;2022-10-19T01:05:18;11.45;75.35
66873;HTU21D;53781;51.090;5.884;2022-10-19T01:05:33;11.45;75.28
66873;HTU21D;53781;51.090;5.884;2022-10-19T01:05:48;11.45;75.28
66873;HTU21D;53781;51.090;5.884;2022-10-19T01:06:04;11.44;75.30
66873;HTU21D;53781;51.090;5.884;2022-10-19T01:06:19;11.43;75.31
66873;HTU21D;53781;51.090;5.884;2022-10-19T01:06:34;11.43;75.22
66873;HTU21D;53781;51.090;5.884;2022-10-19T01:06:53;11.46;75.16
66873;HTU21D;53781;51.090;5.884;2022-10-19T01:07:08;11.43;75.16
66873;HTU21D;53781;51.090;5.884;2022-10-19T01:07:24;11.45;75.18
66873;HTU21D;53781;51.090;5.884;2022-10-19T01:07:40;11.43;75.18
66873;HTU21D;53781;51.090;5.884;2022-10-19T01:07:55;11.43;75.16
66873;HTU21D;53781;51.090;5.884;2022-10-19T01:08:11;11.41;75.17
66873;HTU21D;53781;51.090;5.884;2022-10-19T01:08:27;11.42;75.15
66873;HTU21D;53781;51.090;5.884;2022-10-19T01:08:42;11.40;75.15
66873;HTU21D;53781;51.090;5.884;2022-10-19T01:08:57;11.42;75.16
66873;HTU21D;53781;51.090;5.884;2022-10-19T01:09:12;11.40;75.20
66873;HTU21D;53781;51.090;5.884;2022-10-19T01:09:26;11.39;75.18
66873;HTU21D;53781;51.090;5.884;2022-10-19T01:09:41;11.39;75.22
66873;HTU21D;53781;51.090;5.884;2022-10-19T01:09:56;11.39;75.24
66873;HTU21D;53781;51.090;5.884;2022-10-19T01:10:12;11.40;75.26
66873;HTU21D;53781;51.090;5.884;2022-10-19T01:10:44;11.38;75.28
66873;HTU21D;53781;51.090;5.884;2022-10-19T01:11:22;11.37;75.30
66873;HTU21D;53781;51.090;5.884;2022-10-19T01:12:14;11.36;75.31
66873;HTU21D;53781;51.090;5.884;2022-10-19T01:12:56;11.33;75.31
66873;HTU21D;53781;51.090;5.884;2022-10-19T01:16:25;11.25;75.46
66873;HTU21D;53781;51.090;5.884;2022-10-19T01:16:49;11.26;75.48
66873;HTU21D;53781;51.090;5.884;2022-10-19T01:21:33;11.22;75.43
66873;HTU21D;53781;51.090;5.884;2022-10-19T01:22:12;11.22;75.41
66873;HTU21D;53781;51.090;5.884;2022-10-19T01:23:11;11.20;75.36
66873;HTU21D;53781;51.090;5.884;2022-10-19T01:26:50;11.13;75.16
66873;HTU21D;53781;51.090;5.884;2022-10-19T01:29:57;11.10;75.28
66873;HTU21D;53781;51.090;5.884;2022-10-19T01:30:55;11.09;75.38
66873;HTU21D;53781;51.090;5.884;2022-10-19T01:32:01;11.09;75.47
66873;HTU21D;53781;51.090;5.884;2022-10-19T01:33:07;11.04;75.28
66873;HTU21D;53781;51.090;5.884;2022-10-19T01:33:54;11.03;75.28
66873;HTU21D;53781;51.090;5.884;2022-10-19T01:35:01;11.01;75.24
66873;HTU21D;53781;51.090;5.884;2022-10-19T01:35:59;11.01;75.34
66873;HTU21D;53781;51.090;5.884;2022-10-19T01:37:16;11.02;75.43
66873;HTU21D;53781;51.090;5.884;2022-10-19T01:37:33;11.00;75.44
66873;HTU21D;53781;51.090;5.884;2022-10-19T01:38:39;11.02;75.44
66873;HTU21D;53781;51.090;5.884;2022-10-19T01:38:50;11.02;75.32
66873;HTU21D;53781;51.090;5.884;2022-10-19T01:39:37;11.01;75.27
66873;HTU21D;53781;51.090;5.884;2022-10-19T01:40:08;11.02;75.28
66873;HTU21D;53781;51.090;5.884;2022-10-19T01:41:46;10.99;75.38
66873;HTU21D;53781;51.090;5.884;2022-10-19T01:43:15;11.00;75.33
66873;HTU21D;53781;51.090;5.884;2022-10-19T01:44:09;11.00;75.39
66873;HTU21D;53781;51.090;5.884;2022-10-19T01:45:17;10.99;75.53
66873;HTU21D;53781;51.090;5.884;2022-10-19T01:45:50;10.99;75.57
66873;HTU21D;53781;51.090;5.884;2022-10-19T01:46:18;10.99;75.67
66873;HTU21D;53781;51.090;5.884;2022-10-19T01:46:40;10.98;75.70
66873;HTU21D;53781;51.090;5.884;2022-10-19T01:47:06;10.98;75.75
66873;HTU21D;53781;51.090;5.884;2022-10-19T01:47:26;11.00;75.76
66873;HTU21D;53781;51.090;5.884;2022-10-19T01:47:54;11.01;75.82
66873;HTU21D;53781;51.090;5.884;2022-10-19T01:48:22;11.01;75.80
66873;HTU21D;53781;51.090;5.884;2022-10-19T01:48:46;11.00;75.78
66873;HTU21D;53781;51.090;5.884;2022-10-19T01:49:12;11.02;75.84
66873;HTU21D;53781;51.090;5.884;2022-10-19T01:49:43;11.03;75.87
66873;HTU21D;53781;51.090;5.884;2022-10-19T01:50:20;11.03;76.03
66873;HTU21D;53781;51.090;5.884;2022-10-19T01:50:48;11.04;76.05
66873;HTU21D;53781;51.090;5.884;2022-10-19T01:51:09;11.05;76.04
66873;HTU21D;53781;51.090;5.884;2022-10-19T01:51:33;11.07;75.99
66873;HTU21D;53781;51.090;5.884;2022-10-19T01:51:57;11.05;76.02
66873;HTU21D;53781;51.090;5.884;2022-10-19T01:52:17;11.08;76.11
66873;HTU21D;53781;51.090;5.884;2022-10-19T01:52:32;11.08;76.13
66873;HTU21D;53781;51.090;5.884;2022-10-19T01:52:50;11.08;76.18
66873;HTU21D;53781;51.090;5.884;2022-10-19T01:53:09;11.08;76.18
66873;HTU21D;53781;51.090;5.884;2022-10-19T01:53:29;11.08;76.20
66873;HTU21D;53781;51.090;5.884;2022-10-19T01:53:53;11.09;76.26
66873;HTU21D;53781;51.090;5.884;2022-10-19T01:54:12;11.08;76.25
66873;HTU21D;53781;51.090;5.884;2022-10-19T01:54:35;11.07;76.34
66873;HTU21D;53781;51.090;5.884;2022-10-19T01:54:56;11.08;76.37
66873;HTU21D;53781;51.090;5.884;2022-10-19T01:55:14;11.10;76.43
66873;HTU21D;53781;51.090;5.884;2022-10-19T01:55:31;11.09;76.50
66873;HTU21D;53781;51.090;5.884;2022-10-19T01:55:50;11.10;76.58
66873;HTU21D;53781;51.090;5.884;2022-10-19T01:56:07;11.11;76.63
66873;HTU21D;53781;51.090;5.884;2022-10-19T01:56:26;11.10;76.64
66873;HTU21D;53781;51.090;5.884;2022-10-19T01:56:44;11.10;76.70
66873;HTU21D;53781;51.090;5.884;2022-10-19T01:57:05;11.10;76.75
66873;HTU21D;53781;51.090;5.884;2022-10-19T01:57:27;11.12;76.80
66873;HTU21D;53781;51.090;5.884;2022-10-19T01:57:48;11.09;76.80
66873;HTU21D;53781;51.090;5.884;2022-10-19T01:58:06;11.11;76.85
66873;HTU21D;53781;51.090;5.884;2022-10-19T01:58:27;11.11;76.98
66873;HTU21D;53781;51.090;5.884;2022-10-19T01:58:45;11.11;77.02
66873;HTU21D;53781;51.090;5.884;2022-10-19T01:59:05;11.11;77.06
66873;HTU21D;53781;51.090;5.884;2022-10-19T01:59:22;11.12;77.15
66873;HTU21D;53781;51.090;5.884;2022-10-19T01:59:38;11.14;77.16
66873;HTU21D;53781;51.090;5.884;2022-10-19T01:59:56;11.15;77.21
66873;HTU21D;53781;51.090;5.884;2022-10-19T02:00:14;11.14;77.24
66873;HTU21D;53781;51.090;5.884;2022-10-19T02:00:36;11.15;77.23
66873;HTU21D;53781;51.090;5.884;2022-10-19T02:00:56;11.14;77.27
66873;HTU21D;53781;51.090;5.884;2022-10-19T02:01:15;11.17;77.23
66873;HTU21D;53781;51.090;5.884;2022-10-19T02:01:40;11.17;77.24
66873;HTU21D;53781;51.090;5.884;2022-10-19T02:01:57;11.17;77.27
66873;HTU21D;53781;51.090;5.884;2022-10-19T02:02:14;11.17;77.26
66873;HTU21D;53781;51.090;5.884;2022-10-19T02:02:30;11.18;77.28
66873;HTU21D;53781;51.090;5.884;2022-10-19T02:02:48;11.18;77.30
66873;HTU21D;53781;51.090;5.884;2022-10-19T02:03:05;11.19;77.30
66873;HTU21D;53781;51.090;5.884;2022-10-19T02:03:22;11.19;77.39
66873;HTU21D;53781;51.090;5.884;2022-10-19T02:03:39;11.19;77.39
66873;HTU21D;53781;51.090;5.884;2022-10-19T02:03:56;11.19;77.40
66873;HTU21D;53781;51.090;5.884;2022-10-19T02:04:18;11.20;77.44
66873;HTU21D;53781;51.090;5.884;2022-10-19T02:04:34;11.22;77.43
66873;HTU21D;53781;51.090;5.884;2022-10-19T02:04:52;11.22;77.47
66873;HTU21D;53781;51.090;5.884;2022-10-19T02:05:10;11.23;77.39
66873;HTU21D;53781;51.090;5.884;2022-10-19T02:05:30;11.23;77.47
66873;HTU21D;53781;51.090;5.884;2022-10-19T02:05:47;11.25;77.47
66873;HTU21D;53781;51.090;5.884;2022-10-19T02:06:06;11.25;77.46
66873;HTU21D;53781;51.090;5.884;2022-10-19T02:06:22;11.25;77.44
66873;HTU21D;53781;51.090;5.884;2022-10-19T02:06:37;11.26;77.44
66873;HTU21D;53781;51.090;5.884;2022-10-19T02:06:54;11.25;77.48
66873;HTU21D;53781;51.090;5.884;2022-10-19T02:07:10;11.25;77.37
66873;HTU21D;53781;51.090;5.884;2022-10-19T02:07:26;11.26;77.40
66873;HTU21D;53781;51.090;5.884;2022-10-19T02:07:47;11.26;77.42
66873;HTU21D;53781;51.090;5.884;2022-10-19T02:08:09;11.26;77.41
66873;HTU21D;53781;51.090;5.884;2022-10-19T02:08:37;11.25;77.45
66873;HTU21D;53781;51.090;5.884;2022-10-19T02:08:54;11.26;77.40
66873;HTU21D;53781;51.090;5.884;2022-10-19T02:09:09;11.25;77.40
66873;HTU21D;53781;51.090;5.884;2022-10-19T02:09:24;11.27;77.43
66873;HTU21D;53781;51.090;5.884;2022-10-19T02:09:38;11.25;77.42
66873;HTU21D;53781;51.090;5.884;2022-10-19T02:09:54;11.26;77.44
66873;HTU21D;53781;51.090;5.884;2022-10-19T02:10:10;11.25;77.41
66873;HTU21D;53781;51.090;5.884;2022-10-19T02:10:25;11.25;77.41
66873;HTU21D;53781;51.090;5.884;2022-10-19T02:10:43;11.25;77.45
66873;HTU21D;53781;51.090;5.884;2022-10-19T02:11:00;11.25;77.47
66873;HTU21D;53781;51.090;5.884;2022-10-19T02:11:17;11.25;77.45
66873;HTU21D;53781;51.090;5.884;2022-10-19T02:11:34;11.26;77.49
66873;HTU21D;53781;51.090;5.884;2022-10-19T02:11:54;11.25;77.47
66873;HTU21D;53781;51.090;5.884;2022-10-19T02:12:14;11.26;77.46
66873;HTU21D;53781;51.090;5.884;2022-10-19T02:12:31;11.25;77.50
66873;HTU21D;53781;51.090;5.884;2022-10-19T02:12:47;11.26;77.44
66873;HTU21D;53781;51.090;5.884;2022-10-19T02:13:04;11.26;77.44
66873;HTU21D;53781;51.090;5.884;2022-10-19T02:13:21;11.24;77.44
66873;HTU21D;53781;51.090;5.884;2022-10-19T02:13:38;11.25;77.46
66873;HTU21D;53781;51.090;5.884;2022-10-19T02:14:03;11.26;77.50
66873;HTU21D;53781;51.090;5.884;2022-10-19T02:14:25;11.24;77.43